Time;durP1;ratioP1;P1;durP2;ratioP2;P2;SDS_P1;SDS_P2;PMS_P1;PMS_P2;Temp;Humidity;BMP_temperature;BMP_pressure;BME280_temperature;BME280_humidity;BME280_pressure;Samples;Min_cycle;Max_cycle;Signal;HPM_P1;HPM_P2
2021/03/04 00:00:53;;;;;;;5.22;1.98;;;11.90;42.90;;;;;;2342639;54;20923;-67
2021/03/04 00:03:20;;;;;;;5.28;1.87;;;11.90;42.90;;;;;;2342839;54;21010;-67
2021/03/04 00:05:46;;;;;;;4.82;2.03;;;11.80;43.00;;;;;;2343185;54;21398;-67
2021/03/04 00:08:13;;;;;;;3.85;1.90;;;11.80;43.00;;;;;;2333206;54;21065;-67
2021/03/04 00:10:39;;;;;;;3.70;2.12;;;11.80;43.00;;;;;;2334621;54;20984;-67
2021/03/04 00:13:06;;;;;;;5.28;2.08;;;11.80;43.10;;;;;;2342947;54;20926;-67
2021/03/04 00:15:35;;;;;;;4.60;1.95;;;11.80;43.10;;;;;;2589985;53;21014;-68
2021/03/04 00:18:01;;;;;;;4.37;1.92;;;11.80;43.20;;;;;;2343324;54;20978;-68
2021/03/04 00:20:30;;;;;;;4.45;2.05;;;11.70;43.10;;;;;;2590646;53;20935;-67
2021/03/04 00:22:57;;;;;;;6.07;1.75;;;11.70;43.20;;;;;;2562319;53;21283;-68
2021/03/04 00:25:28;;;;;;;4.95;2.25;;;11.70;43.20;;;;;;2343550;54;21014;-68
2021/03/04 00:27:54;;;;;;;4.65;2.25;;;11.70;43.20;;;;;;2557222;53;21730;-67
2021/03/04 00:30:21;;;;;;;6.25;2.53;;;11.70;43.20;;;;;;2581674;53;20975;-67
2021/03/04 00:32:48;;;;;;;4.55;2.12;;;11.60;43.10;;;;;;2343502;54;20934;-67
2021/03/04 00:35:14;;;;;;;4.60;2.12;;;11.60;43.10;;;;;;2590151;53;21590;-67
2021/03/04 00:37:42;;;;;;;4.85;2.37;;;11.50;43.00;;;;;;2342900;54;20958;-67
2021/03/04 00:40:12;;;;;;;4.68;2.17;;;11.50;43.10;;;;;;2344432;54;21018;-67
2021/03/04 00:42:38;;;;;;;4.28;2.00;;;11.50;43.10;;;;;;2322116;54;21737;-67
2021/03/04 00:45:10;;;;;;;4.95;2.22;;;11.50;43.20;;;;;;2588792;53;20959;-67
2021/03/04 00:47:37;;;;;;;4.87;1.95;;;11.40;43.30;;;;;;2562907;53;20982;-67
2021/03/04 00:50:04;;;;;;;4.62;2.05;;;11.30;43.70;;;;;;2590064;53;21384;-68
2021/03/04 00:52:31;;;;;;;4.00;1.87;;;11.30;43.20;;;;;;2588442;53;20979;-67
2021/03/04 00:54:57;;;;;;;5.30;2.37;;;11.20;43.10;;;;;;2343529;54;21083;-67
2021/03/04 00:57:24;;;;;;;5.22;2.30;;;11.10;43.70;;;;;;2343460;54;20922;-67
2021/03/04 00:59:51;;;;;;;4.50;2.25;;;11.10;43.20;;;;;;2590401;53;20997;-67
2021/03/04 01:02:18;;;;;;;5.30;2.30;;;11.10;43.30;;;;;;2343355;54;20978;-68
2021/03/04 01:04:44;;;;;;;5.03;2.22;;;11.00;43.30;;;;;;2589765;53;20954;-68
2021/03/04 01:07:11;;;;;;;4.22;2.25;;;10.90;43.20;;;;;;2330809;54;21832;-67
2021/03/04 01:09:37;;;;;;;4.47;2.05;;;10.90;43.30;;;;;;2583947;53;20970;-67
2021/03/04 01:12:04;;;;;;;5.62;1.98;;;10.80;43.30;;;;;;2576185;53;20953;-68
2021/03/04 01:14:30;;;;;;;4.10;2.03;;;10.80;43.40;;;;;;2310548;55;20970;-67
2021/03/04 01:16:58;;;;;;;4.12;2.00;;;10.80;43.50;;;;;;2326459;54;20979;-67
2021/03/04 01:19:24;;;;;;;4.25;2.20;;;10.80;43.60;;;;;;2323642;54;20922;-67
2021/03/04 01:21:51;;;;;;;3.67;1.80;;;10.70;43.60;;;;;;2579939;53;21006;-67
2021/03/04 01:24:18;;;;;;;3.65;1.80;;;10.70;43.70;;;;;;2328801;54;20954;-67
2021/03/04 01:26:44;;;;;;;7.40;2.03;;;10.60;43.60;;;;;;2321359;54;21062;-67
2021/03/04 01:29:13;;;;;;;5.47;1.92;;;10.60;43.60;;;;;;2589178;53;21026;-67
2021/03/04 01:31:41;;;;;;;5.12;2.00;;;10.60;43.70;;;;;;2340850;54;21018;-67
2021/03/04 01:34:08;;;;;;;4.62;2.00;;;10.60;43.80;;;;;;2327210;54;21454;-67
2021/03/04 01:36:34;;;;;;;6.35;2.55;;;10.50;43.80;;;;;;2589976;53;20914;-67
2021/03/04 01:39:01;;;;;;;8.73;2.90;;;10.50;43.80;;;;;;2343897;54;20970;-67
2021/03/04 01:41:28;;;;;;;5.28;3.00;;;10.40;43.90;;;;;;2561698;53;21069;-67
2021/03/04 01:43:54;;;;;;;4.85;2.33;;;10.40;44.00;;;;;;2344160;54;20973;-67
2021/03/04 01:46:20;;;;;;;5.68;2.80;;;10.40;44.00;;;;;;2562701;53;20958;-67
2021/03/04 01:48:51;;;;;;;4.55;2.20;;;10.30;44.00;;;;;;2343706;54;20992;-67
2021/03/04 01:51:17;;;;;;;4.32;2.22;;;10.30;44.00;;;;;;2589694;53;20954;-67
2021/03/04 01:53:43;;;;;;;5.03;2.37;;;10.20;44.00;;;;;;2343884;54;21554;-67
2021/03/04 01:56:10;;;;;;;5.72;2.70;;;10.20;44.00;;;;;;2344300;54;20958;-67
2021/03/04 01:58:36;;;;;;;5.30;2.70;;;10.20;44.10;;;;;;2343259;54;21583;-67
2021/03/04 02:04:25;;;;;;;7.28;2.80;;;10.10;44.40;;;;;;2589201;53;20966;-67
2021/03/04 02:07:08;;;;;;;3.85;2.12;;;10.00;44.10;;;;;;2344228;54;21018;-67
2021/03/04 02:09:34;;;;;;;4.53;2.15;;;10.00;44.30;;;;;;2343990;54;20959;-67
2021/03/04 02:12:19;;;;;;;4.47;2.12;;;9.90;45.00;;;;;;2342869;54;21055;-67
2021/03/04 02:14:58;;;;;;;6.03;2.55;;;9.90;45.30;;;;;;2589144;53;20971;-67
2021/03/04 02:17:26;;;;;;;4.43;2.25;;;9.90;45.40;;;;;;2343959;54;21669;-67
2021/03/04 02:20:36;;;;;;;5.28;2.40;;;9.80;45.20;;;;;;2590206;53;21007;-67
2021/03/04 02:28:02;;;;;;;4.57;1.90;;;9.80;45.50;;;;;;2589658;53;20918;-67
2021/03/04 02:30:31;;;;;;;4.60;1.80;;;9.70;45.40;;;;;;2344830;54;21665;-67
2021/03/04 02:33:11;;;;;;;4.37;1.90;;;9.60;45.00;;;;;;2555984;53;20925;-67
2021/03/04 02:35:37;;;;;;;5.55;2.28;;;9.60;45.10;;;;;;2341765;54;20930;-67
2021/03/04 02:38:09;;;;;;;4.18;2.10;;;9.60;45.10;;;;;;2562014;53;21347;-67
2021/03/04 02:40:35;;;;;;;4.37;1.93;;;9.50;45.20;;;;;;2344042;54;20919;-67
2021/03/04 02:43:05;;;;;;;5.12;2.22;;;9.50;45.30;;;;;;2325635;54;20966;-67
2021/03/04 02:45:31;;;;;;;5.18;2.17;;;9.40;45.20;;;;;;2334187;54;20923;-67
2021/03/04 02:47:58;;;;;;;5.95;2.90;;;9.40;45.30;;;;;;2560904;53;20942;-67
2021/03/04 02:50:24;;;;;;;4.68;2.20;;;9.30;45.40;;;;;;2342955;54;20944;-67
2021/03/04 02:52:51;;;;;;;5.70;2.25;;;9.30;45.40;;;;;;2562811;53;21391;-67
2021/03/04 02:55:17;;;;;;;3.78;1.92;;;9.30;45.50;;;;;;2331542;54;20970;-67
2021/03/04 02:57:46;;;;;;;6.03;2.62;;;9.30;45.60;;;;;;2335754;53;20995;-67
2021/03/04 03:00:14;;;;;;;4.80;2.20;;;9.20;45.60;;;;;;2562327;53;20954;-67
2021/03/04 03:02:42;;;;;;;6.25;2.65;;;9.20;45.70;;;;;;2343398;54;20933;-67
2021/03/04 03:05:09;;;;;;;9.27;2.92;;;9.20;45.70;;;;;;2589733;53;21073;-67
2021/03/04 03:07:39;;;;;;;5.22;2.05;;;9.10;45.80;;;;;;2343562;54;20937;-67
2021/03/04 03:10:05;;;;;;;4.22;2.03;;;9.10;45.80;;;;;;2343340;54;20939;-67
2021/03/04 03:12:33;;;;;;;4.60;2.08;;;9.10;45.80;;;;;;2559278;53;20982;-67
2021/03/04 03:15:00;;;;;;;4.87;2.42;;;9.00;45.90;;;;;;2335013;54;20998;-67
2021/03/04 03:17:27;;;;;;;5.57;2.40;;;9.10;46.00;;;;;;2589880;53;20994;-67
2021/03/04 03:19:57;;;;;;;4.70;2.50;;;9.00;46.10;;;;;;2324744;54;20950;-67
2021/03/04 03:22:24;;;;;;;4.87;1.80;;;9.00;46.10;;;;;;2344480;54;21049;-67
2021/03/04 03:24:51;;;;;;;4.40;2.12;;;9.00;46.30;;;;;;2589837;53;20951;-67
2021/03/04 03:27:18;;;;;;;3.78;1.80;;;9.00;46.40;;;;;;2570441;53;21062;-67
2021/03/04 03:29:44;;;;;;;4.40;2.30;;;9.00;46.50;;;;;;2336799;54;20990;-67
2021/03/04 03:32:11;;;;;;;7.00;2.42;;;9.00;46.50;;;;;;2590285;53;20974;-67
2021/03/04 03:34:39;;;;;;;6.18;3.10;;;9.00;46.60;;;;;;2586960;53;21297;-67
2021/03/04 03:37:06;;;;;;;4.28;2.35;;;9.00;46.70;;;;;;2559048;53;21046;-67
2021/03/04 03:39:34;;;;;;;7.32;2.80;;;9.00;46.80;;;;;;2578622;53;21002;-67
2021/03/04 03:42:01;;;;;;;5.43;2.65;;;9.10;47.00;;;;;;2343073;54;20930;-67
2021/03/04 03:44:27;;;;;;;4.82;2.53;;;9.10;47.10;;;;;;2343814;54;20923;-67
2021/03/04 03:46:55;;;;;;;5.32;2.60;;;9.10;47.10;;;;;;2589617;53;21868;-67
2021/03/04 03:49:23;;;;;;;5.87;2.35;;;9.10;47.00;;;;;;2343459;54;20970;-67
2021/03/04 03:51:50;;;;;;;6.07;2.80;;;9.10;47.00;;;;;;2562487;53;20989;-67
2021/03/04 03:54:18;;;;;;;6.90;3.53;;;9.10;46.90;;;;;;2589499;53;20986;-67
2021/03/04 03:56:45;;;;;;;7.03;3.10;;;9.10;46.90;;;;;;2344081;54;21058;-67
2021/03/04 03:59:11;;;;;;;7.03;2.72;;;9.10;47.00;;;;;;2332966;54;20996;-67
2021/03/04 04:01:38;;;;;;;5.70;2.95;;;9.10;47.00;;;;;;2579463;53;20983;-67
2021/03/04 04:04:04;;;;;;;6.95;2.90;;;9.10;47.00;;;;;;2589774;53;20967;-67
2021/03/04 04:06:32;;;;;;;6.07;2.72;;;9.00;46.90;;;;;;2591133;53;20974;-67
2021/03/04 04:08:58;;;;;;;6.47;2.87;;;9.00;46.90;;;;;;2590325;53;21487;-67
2021/03/04 04:11:26;;;;;;;5.80;2.67;;;9.00;46.90;;;;;;2321012;54;20923;-67
2021/03/04 04:13:53;;;;;;;4.22;2.05;;;9.00;47.00;;;;;;2590076;53;20926;-67
2021/03/04 04:16:19;;;;;;;6.87;2.53;;;9.00;47.00;;;;;;2590180;53;21430;-67
2021/03/04 04:18:50;;;;;;;5.93;2.45;;;8.90;46.90;;;;;;2590465;53;20837;-67
2021/03/04 04:21:17;;;;;;;6.95;2.75;;;8.90;47.00;;;;;;2565964;53;21006;-67
2021/03/04 04:23:43;;;;;;;6.78;3.10;;;8.90;47.00;;;;;;2341775;54;21078;-66
2021/03/04 04:26:09;;;;;;;7.65;2.90;;;8.90;47.10;;;;;;2589596;53;21452;-67
2021/03/04 04:28:36;;;;;;;6.43;2.90;;;9.00;47.30;;;;;;2341910;54;21518;-67
2021/03/04 04:31:03;;;;;;;6.10;3.05;;;9.00;47.40;;;;;;2563957;53;21457;-67
2021/03/04 04:33:29;;;;;;;6.50;2.83;;;9.10;47.50;;;;;;2324876;54;20974;-67
2021/03/04 04:35:56;;;;;;;6.45;2.53;;;9.10;47.50;;;;;;2305040;55;20970;-67
2021/03/04 04:38:24;;;;;;;6.12;2.92;;;9.20;47.50;;;;;;2324842;54;20958;-66
2021/03/04 04:40:56;;;;;;;5.72;2.87;;;9.30;48.20;;;;;;2562816;53;21427;-67
2021/03/04 04:43:26;;;;;;;7.22;3.15;;;9.30;47.50;;;;;;2343557;54;21002;-66
2021/03/04 04:45:54;;;;;;;4.65;2.42;;;9.40;47.40;;;;;;2591233;53;20955;-67
2021/03/04 04:48:20;;;;;;;7.37;2.70;;;9.50;47.40;;;;;;2343260;54;20923;-67
2021/03/04 04:50:49;;;;;;;6.53;2.67;;;9.50;47.30;;;;;;2589383;53;21063;-67
2021/03/04 04:53:16;;;;;;;5.82;2.90;;;9.60;47.30;;;;;;2327557;54;21496;-67
2021/03/04 04:55:43;;;;;;;5.25;2.83;;;9.60;47.20;;;;;;2578725;53;21014;-68
2021/03/04 04:58:10;;;;;;;5.55;2.67;;;9.70;47.20;;;;;;2327181;54;21105;-67
2021/03/04 05:00:36;;;;;;;6.95;3.15;;;9.70;47.10;;;;;;2590279;53;21541;-67
2021/03/04 05:03:03;;;;;;;7.05;2.70;;;9.70;47.00;;;;;;2590378;53;21368;-67
2021/03/04 05:05:29;;;;;;;6.75;2.62;;;9.80;47.00;;;;;;2344583;54;20985;-67
2021/03/04 05:08:00;;;;;;;6.03;2.58;;;9.80;47.00;;;;;;2320506;54;21029;-67
2021/03/04 05:10:26;;;;;;;5.85;2.60;;;9.80;46.90;;;;;;2571434;53;20990;-67
2021/03/04 05:12:54;;;;;;;4.85;2.35;;;9.80;46.90;;;;;;2573817;53;21034;-67
2021/03/04 05:15:23;;;;;;;6.78;2.92;;;9.80;46.80;;;;;;2344954;54;20942;-67
2021/03/04 05:17:49;;;;;;;6.50;2.85;;;9.80;46.80;;;;;;2323166;54;21090;-67
2021/03/04 05:20:17;;;;;;;6.22;2.92;;;9.80;46.70;;;;;;2590661;53;20941;-67
2021/03/04 05:22:43;;;;;;;5.70;3.12;;;9.80;47.20;;;;;;2342582;54;20982;-67
2021/03/04 05:25:10;;;;;;;5.47;3.10;;;9.80;46.60;;;;;;2577484;53;20922;-67
2021/03/04 05:27:39;;;;;;;6.80;4.00;;;9.80;46.60;;;;;;2332955;54;21018;-67
2021/03/04 05:30:07;;;;;;;7.03;3.42;;;9.80;46.70;;;;;;2562909;53;21002;-67
2021/03/04 05:32:34;;;;;;;6.78;3.33;;;9.80;46.70;;;;;;2326081;54;20929;-67
2021/03/04 05:35:01;;;;;;;7.62;3.37;;;9.70;46.60;;;;;;2570262;53;20949;-67
2021/03/04 05:37:28;;;;;;;7.47;4.05;;;9.70;46.60;;;;;;2582071;53;20998;-67
2021/03/04 05:39:55;;;;;;;5.68;3.15;;;9.70;46.70;;;;;;2590250;53;21018;-67
2021/03/04 05:42:22;;;;;;;6.62;3.12;;;9.70;46.70;;;;;;2344045;54;20950;-67
2021/03/04 05:44:48;;;;;;;6.30;2.97;;;9.60;46.70;;;;;;2346307;54;20970;-67
2021/03/04 05:47:14;;;;;;;5.12;2.65;;;9.60;46.60;;;;;;2557551;53;20954;-67
2021/03/04 05:51:37;;;;;;;6.62;3.22;;;9.60;46.60;;;;;;2569577;53;21460;-67
2021/03/04 05:54:06;;;;;;;5.32;2.47;;;9.60;46.60;;;;;;2343323;54;21650;-67
2021/03/04 05:56:34;;;;;;;5.82;2.92;;;9.60;46.50;;;;;;2557585;53;20946;-67
2021/03/04 05:59:01;;;;;;;6.07;3.30;;;9.50;46.40;;;;;;2346151;53;20916;-67
2021/03/04 06:01:28;;;;;;;6.47;3.35;;;9.50;46.50;;;;;;2571811;53;21942;-67
2021/03/04 06:03:55;;;;;;;6.80;2.90;;;9.40;46.60;;;;;;2325770;54;21002;-67
2021/03/04 06:06:21;;;;;;;6.32;3.25;;;9.40;46.60;;;;;;2580870;53;21546;-67
2021/03/04 06:08:50;;;;;;;8.13;3.65;;;9.40;46.70;;;;;;2571475;53;20934;-67
2021/03/04 06:11:17;;;;;;;7.30;3.72;;;9.40;46.80;;;;;;2563590;53;20906;-67
2021/03/04 06:13:44;;;;;;;9.25;4.68;;;9.30;46.70;;;;;;2589716;53;20978;-67
2021/03/04 06:16:11;;;;;;;8.60;4.57;;;9.30;46.80;;;;;;2589905;53;21002;-68
2021/03/04 06:18:43;;;;;;;9.10;3.92;;;9.30;46.90;;;;;;2324828;55;21010;-67
2021/03/04 06:21:37;;;;;;;7.60;3.58;;;9.30;46.90;;;;;;2562241;53;20963;-67
2021/03/04 06:24:11;;;;;;;6.45;3.30;;;9.30;47.10;;;;;;2343852;54;21621;-67
2021/03/04 06:26:39;;;;;;;8.90;3.55;;;9.30;47.00;;;;;;2590169;53;21034;-67
2021/03/04 06:29:15;;;;;;;7.72;3.97;;;9.30;47.00;;;;;;2572032;53;21671;-67
2021/03/04 06:31:42;;;;;;;6.40;3.58;;;9.30;47.20;;;;;;2530345;54;21021;-67
2021/03/04 06:34:21;;;;;;;6.82;3.55;;;9.30;47.20;;;;;;2325494;54;20934;-67
2021/03/04 06:37:04;;;;;;;7.45;4.05;;;9.30;47.40;;;;;;2343847;54;21038;-67
2021/03/04 06:39:44;;;;;;;12.23;5.30;;;9.30;47.40;;;;;;2590793;53;20926;-67
2021/03/04 06:42:13;;;;;;;8.60;4.18;;;9.30;47.40;;;;;;2591196;53;20975;-67
2021/03/04 06:44:44;;;;;;;7.85;4.15;;;9.30;47.30;;;;;;2343206;54;20938;-67
2021/03/04 06:47:11;;;;;;;7.05;4.07;;;9.30;47.40;;;;;;2311883;54;21852;-68
2021/03/04 06:49:50;;;;;;;9.35;5.35;;;9.30;47.40;;;;;;2344216;54;20963;-67
2021/03/04 06:52:39;;;;;;;9.57;4.75;;;9.40;47.70;;;;;;2343926;54;20978;-67
2021/03/04 06:55:11;;;;;;;8.90;5.00;;;9.40;48.10;;;;;;2562492;53;21042;-67
2021/03/04 06:57:37;;;;;;;10.18;5.45;;;9.40;48.00;;;;;;2324876;55;20974;-67
2021/03/04 07:00:06;;;;;;;10.50;5.68;;;9.50;48.20;;;;;;2590794;53;20926;-67
2021/03/04 07:02:33;;;;;;;10.63;6.20;;;9.60;48.60;;;;;;2343557;54;20938;-67
2021/03/04 07:05:00;;;;;;;10.65;5.70;;;9.70;48.60;;;;;;2343701;54;21065;-67
2021/03/04 07:07:27;;;;;;;11.43;5.50;;;9.70;48.60;;;;;;2344242;54;20906;-67
2021/03/04 07:09:56;;;;;;;9.88;4.93;;;9.80;48.60;;;;;;2343526;54;20966;-67
2021/03/04 07:12:24;;;;;;;8.32;4.28;;;9.90;48.60;;;;;;2588424;53;21433;-67
2021/03/04 07:14:52;;;;;;;8.75;4.40;;;10.00;47.70;;;;;;2322984;54;20961;-68
2021/03/04 07:17:21;;;;;;;9.57;4.57;;;10.10;47.70;;;;;;2344215;54;21017;-67
2021/03/04 07:19:56;;;;;;;6.90;3.60;;;10.20;47.60;;;;;;2343248;54;20999;-67
2021/03/04 07:22:22;;;;;;;8.90;4.20;;;10.30;47.70;;;;;;2328352;54;21009;-67
2021/03/04 07:24:49;;;;;;;7.25;4.03;;;10.40;47.50;;;;;;2325394;53;20981;-67
2021/03/04 07:27:16;;;;;;;7.25;3.92;;;10.50;47.50;;;;;;2589565;53;20890;-67
2021/03/04 07:29:45;;;;;;;9.02;4.35;;;10.50;47.40;;;;;;2343617;54;21607;-67
2021/03/04 07:32:12;;;;;;;8.63;3.90;;;10.70;47.50;;;;;;2343431;54;21695;-67
2021/03/04 07:34:39;;;;;;;7.55;3.47;;;10.70;47.30;;;;;;2344550;54;20979;-67
2021/03/04 07:37:06;;;;;;;7.28;3.37;;;10.80;47.20;;;;;;2585167;53;21470;-67
2021/03/04 07:39:34;;;;;;;8.02;3.67;;;10.90;47.10;;;;;;2325042;54;21007;-68
2021/03/04 07:42:14;;;;;;;7.28;3.67;;;11.00;47.10;;;;;;2319789;54;21913;-67
2021/03/04 07:44:40;;;;;;;7.97;4.28;;;11.10;47.20;;;;;;2340631;54;21043;-67
2021/03/04 07:47:08;;;;;;;8.00;3.60;;;11.20;47.20;;;;;;2571945;53;20911;-68
2021/03/04 07:49:43;;;;;;;8.93;4.22;;;11.40;47.30;;;;;;2331863;54;20982;-67
2021/03/04 07:52:17;;;;;;;10.27;4.93;;;11.60;47.40;;;;;;2544229;54;21090;-68
2021/03/04 07:54:53;;;;;;;8.07;3.80;;;11.70;47.30;;;;;;2327782;54;21077;-68
2021/03/04 07:57:23;;;;;;;8.75;4.12;;;11.80;47.10;;;;;;2340741;54;21511;-68
2021/03/04 07:59:59;;;;;;;10.32;4.62;;;12.00;47.10;;;;;;2558264;53;20954;-68
2021/03/04 08:02:32;;;;;;;8.63;4.00;;;12.10;46.70;;;;;;2343493;54;21018;-68
2021/03/04 08:05:34;;;;;;;9.40;4.10;;;12.30;46.70;;;;;;2344112;54;20958;-68
2021/03/04 08:08:14;;;;;;;8.40;3.72;;;12.40;46.30;;;;;;2572755;53;20967;-68
2021/03/04 08:10:49;;;;;;;7.57;3.95;;;12.60;46.50;;;;;;2584485;53;20939;-68
2021/03/04 08:13:16;;;;;;;9.60;4.15;;;12.70;46.30;;;;;;2343606;54;21002;-68
2021/03/04 08:15:44;;;;;;;9.55;4.32;;;12.80;46.30;;;;;;2315189;54;21780;-68
2021/03/04 08:18:24;;;;;;;13.70;4.70;;;12.90;46.10;;;;;;2324696;55;20927;-68
2021/03/04 08:20:51;;;;;;;11.07;4.60;;;13.10;45.80;;;;;;2343966;54;21510;-68
2021/03/04 08:23:20;;;;;;;11.85;5.03;;;13.20;45.80;;;;;;2329746;54;21045;-68
2021/03/04 08:25:46;;;;;;;10.48;4.47;;;13.30;45.60;;;;;;2570487;53;20950;-68
2021/03/04 08:28:27;;;;;;;9.73;4.22;;;13.40;45.50;;;;;;2332686;54;21026;-68
2021/03/04 08:30:53;;;;;;;9.40;4.53;;;13.50;45.10;;;;;;2344981;54;20934;-68
2021/03/04 08:33:21;;;;;;;8.98;3.90;;;13.60;45.30;;;;;;2343487;54;20994;-68
2021/03/04 08:35:49;;;;;;;9.30;4.80;;;13.70;45.50;;;;;;2590267;53;20955;-68
2021/03/04 08:38:17;;;;;;;9.38;4.70;;;13.90;45.90;;;;;;2590424;53;20914;-68
2021/03/04 08:40:54;;;;;;;10.05;4.50;;;14.10;46.20;;;;;;2344595;54;21705;-68
2021/03/04 08:43:27;;;;;;;10.05;4.57;;;14.40;46.30;;;;;;2347492;54;20944;-68
2021/03/04 08:46:01;;;;;;;10.25;4.65;;;14.70;46.60;;;;;;2319693;54;21015;-69
2021/03/04 08:48:28;;;;;;;9.48;4.70;;;15.10;46.50;;;;;;2341300;54;20915;-68
2021/03/04 08:51:03;;;;;;;9.82;5.07;;;15.50;46.80;;;;;;2338593;54;22321;-68
2021/03/04 08:53:31;;;;;;;11.02;5.40;;;15.80;46.60;;;;;;2329919;54;21558;-70
2021/03/04 08:55:59;;;;;;;12.20;5.40;;;16.20;46.00;;;;;;2331889;54;21524;-68
2021/03/04 08:58:30;;;;;;;8.90;4.87;;;16.50;46.10;;;;;;2557994;53;20934;-69
2021/03/04 09:01:01;;;;;;;9.45;5.10;;;16.80;45.60;;;;;;2571785;53;21025;-70
2021/03/04 09:03:30;;;;;;;10.65;5.62;;;17.10;45.20;;;;;;2333638;54;20995;-71
2021/03/04 09:06:12;;;;;;;12.02;6.00;;;17.30;44.70;;;;;;2342559;54;20947;-72
2021/03/04 09:08:43;;;;;;;15.75;6.12;;;17.50;43.40;;;;;;2343646;54;21817;-71
2021/03/04 09:11:22;;;;;;;10.13;5.03;;;17.70;43.00;;;;;;2343961;54;20899;-70
2021/03/04 09:13:48;;;;;;;11.40;5.03;;;17.70;42.70;;;;;;2590343;53;20998;-68
2021/03/04 09:16:14;;;;;;;11.27;4.95;;;17.80;42.50;;;;;;2331057;54;20946;-69
2021/03/04 09:18:44;;;;;;;11.95;5.40;;;17.80;42.20;;;;;;2558336;53;21593;-70
2021/03/04 09:21:11;;;;;;;9.30;5.00;;;17.80;41.60;;;;;;2342167;54;20988;-68
2021/03/04 09:23:41;;;;;;;10.77;5.00;;;17.80;41.80;;;;;;2319115;54;20958;-72
2021/03/04 09:26:08;;;;;;;9.05;5.25;;;17.80;41.70;;;;;;2337246;54;21038;-70
2021/03/04 09:28:36;;;;;;;10.30;5.03;;;17.80;41.50;;;;;;2573418;53;21517;-72
2021/03/04 09:31:12;;;;;;;10.90;5.60;;;17.90;41.70;;;;;;2572943;53;21032;-71
2021/03/04 09:33:39;;;;;;;10.13;5.72;;;18.10;41.60;;;;;;2324388;54;21010;-70
2021/03/04 09:36:07;;;;;;;10.82;5.15;;;18.20;42.10;;;;;;2343703;54;20947;-70
2021/03/04 09:38:36;;;;;;;10.90;5.68;;;18.50;42.20;;;;;;2342942;54;21010;-73
2021/03/04 09:41:15;;;;;;;13.48;6.10;;;18.80;42.20;;;;;;2344018;54;20985;-69
2021/03/04 09:43:55;;;;;;;10.10;5.35;;;19.00;41.40;;;;;;2344050;54;20994;-69
2021/03/04 09:46:28;;;;;;;14.48;5.53;;;19.30;40.70;;;;;;2590643;53;21030;-69
2021/03/04 09:49:05;;;;;;;8.65;4.50;;;19.50;40.20;;;;;;2343466;54;21471;-69
2021/03/04 09:51:41;;;;;;;8.10;4.43;;;19.60;40.50;;;;;;2589537;53;21558;-69
2021/03/04 09:54:08;;;;;;;8.48;4.65;;;19.80;40.00;;;;;;2590487;53;21399;-69
2021/03/04 09:56:44;;;;;;;11.25;4.80;;;20.00;39.80;;;;;;2343530;54;20987;-69
2021/03/04 09:59:17;;;;;;;10.02;4.62;;;20.10;39.50;;;;;;2344379;54;21024;-69
2021/03/04 10:01:43;;;;;;;11.23;4.75;;;20.20;39.00;;;;;;2589400;53;21455;-68
2021/03/04 10:04:09;;;;;;;9.43;4.40;;;20.40;39.60;;;;;;2565426;53;21110;-69
2021/03/04 10:06:37;;;;;;;8.38;3.65;;;20.50;40.00;;;;;;2561794;53;20989;-69
2021/03/04 10:09:06;;;;;;;8.77;4.10;;;20.70;40.30;;;;;;2328448;54;20970;-71
2021/03/04 10:11:36;;;;;;;8.00;4.03;;;21.00;40.10;;;;;;2586814;53;20974;-70
2021/03/04 10:14:13;;;;;;;8.05;4.12;;;21.10;40.20;;;;;;2590389;53;21006;-70
2021/03/04 10:16:42;;;;;;;9.45;3.97;;;21.40;39.30;;;;;;2344319;54;20986;-70
2021/03/04 10:19:09;;;;;;;8.02;4.00;;;21.60;39.70;;;;;;2324613;54;21332;-70
2021/03/04 10:21:35;;;;;;;10.40;4.97;;;21.70;39.80;;;;;;2334646;54;21006;-70
2021/03/04 10:24:02;;;;;;;8.50;4.60;;;21.90;39.40;;;;;;2325156;54;20950;-70
2021/03/04 10:26:28;;;;;;;8.43;4.80;;;22.20;39.50;;;;;;2325020;54;21098;-71
2021/03/04 10:28:55;;;;;;;7.82;4.20;;;22.40;38.90;;;;;;2342867;54;20958;-71
2021/03/04 10:31:21;;;;;;;7.60;4.22;;;22.60;39.20;;;;;;2344547;54;21488;-70
2021/03/04 10:33:48;;;;;;;8.88;4.62;;;22.80;39.20;;;;;;2344253;54;21374;-73
2021/03/04 10:36:14;;;;;;;9.48;4.57;;;23.00;39.60;;;;;;2343233;54;20982;-71
2021/03/04 10:38:41;;;;;;;8.23;4.70;;;23.30;39.30;;;;;;2590330;53;20978;-70
2021/03/04 10:41:09;;;;;;;7.55;3.90;;;23.60;39.20;;;;;;2589428;53;20971;-70
2021/03/04 10:43:35;;;;;;;7.97;4.15;;;23.80;38.90;;;;;;2573757;53;20942;-71
2021/03/04 10:46:02;;;;;;;8.07;4.40;;;24.10;38.30;;;;;;2324877;54;21029;-68
2021/03/04 10:48:28;;;;;;;9.25;4.25;;;24.20;37.50;;;;;;2343627;54;21015;-70
2021/03/04 10:50:55;;;;;;;8.30;4.20;;;24.30;37.40;;;;;;2343713;54;21438;-69
2021/03/04 10:53:22;;;;;;;8.73;4.68;;;24.50;36.30;;;;;;2336229;54;20922;-67
2021/03/04 10:55:48;;;;;;;9.02;4.25;;;24.50;35.80;;;;;;2332376;53;20930;-71
2021/03/04 10:58:15;;;;;;;10.63;5.22;;;24.50;34.70;;;;;;2565535;53;21637;-68
2021/03/04 11:00:41;;;;;;;9.35;4.95;;;24.40;33.30;;;;;;2339484;53;20978;-68
2021/03/04 11:03:08;;;;;;;10.00;5.32;;;24.30;33.40;;;;;;2573011;52;20942;-70
2021/03/04 11:05:34;;;;;;;9.82;5.45;;;24.20;32.80;;;;;;2571524;53;20950;-70
2021/03/04 11:08:01;;;;;;;9.40;4.57;;;24.10;31.90;;;;;;2584442;53;20954;-70
2021/03/04 11:10:27;;;;;;;10.57;4.55;;;23.80;31.50;;;;;;2319535;54;20954;-70
2021/03/04 11:12:55;;;;;;;7.97;4.32;;;23.80;31.70;;;;;;2575525;53;20987;-70
2021/03/04 11:15:22;;;;;;;8.30;4.30;;;23.70;31.80;;;;;;2563948;53;20922;-70
2021/03/04 11:17:49;;;;;;;6.25;3.53;;;23.60;31.40;;;;;;2319513;54;20954;-70
2021/03/04 11:20:15;;;;;;;8.35;4.00;;;23.50;31.60;;;;;;2327277;54;20978;-70
2021/03/04 11:22:42;;;;;;;6.45;3.20;;;23.40;31.50;;;;;;2563705;53;20949;-72
2021/03/04 11:25:10;;;;;;;6.70;3.75;;;23.30;31.60;;;;;;2586946;53;20947;-70
2021/03/04 11:27:37;;;;;;;7.45;4.20;;;23.20;31.60;;;;;;2347807;54;20994;-71
2021/03/04 11:30:06;;;;;;;7.53;3.83;;;23.20;32.50;;;;;;2564421;53;21014;-70
2021/03/04 11:32:32;;;;;;;7.20;3.78;;;23.20;31.50;;;;;;2326145;54;20939;-70
2021/03/04 11:34:59;;;;;;;9.05;4.10;;;23.30;31.90;;;;;;2562536;53;20954;-71
2021/03/04 11:37:25;;;;;;;6.72;3.65;;;23.30;31.80;;;;;;2563426;53;21395;-70
2021/03/04 11:39:52;;;;;;;7.47;3.85;;;23.30;31.80;;;;;;2557022;53;21375;-71
2021/03/04 11:42:19;;;;;;;7.57;3.47;;;23.20;31.60;;;;;;2323155;54;21069;-73
2021/03/04 11:44:45;;;;;;;7.10;4.10;;;23.20;31.40;;;;;;2568987;53;21471;-70
2021/03/04 11:47:12;;;;;;;10.77;4.82;;;23.10;31.10;;;;;;2585605;53;20986;-70
2021/03/04 11:49:39;;;;;;;10.07;4.15;;;23.00;30.30;;;;;;2321477;54;20954;-70
2021/03/04 11:52:06;;;;;;;8.45;3.90;;;22.80;30.10;;;;;;2323654;54;20958;-69
2021/03/04 11:54:32;;;;;;;7.35;3.90;;;22.60;30.20;;;;;;2570622;53;20914;-70
2021/03/04 11:56:58;;;;;;;7.75;4.10;;;22.40;30.30;;;;;;2556772;53;21025;-70
2021/03/04 11:59:25;;;;;;;9.32;4.57;;;22.10;30.00;;;;;;2557412;53;20971;-69
2021/03/04 12:01:51;;;;;;;9.40;4.78;;;21.90;29.90;;;;;;2332073;54;21042;-70
2021/03/04 12:04:18;;;;;;;8.73;5.05;;;21.60;29.90;;;;;;2558044;53;20970;-69
2021/03/04 12:06:44;;;;;;;9.13;4.85;;;21.40;30.00;;;;;;2324316;54;20946;-69
2021/03/04 12:09:11;;;;;;;11.02;4.57;;;21.10;30.10;;;;;;2569343;53;20962;-69
2021/03/04 12:11:43;;;;;;;11.85;4.03;;;20.90;30.40;;;;;;2322026;54;20982;-69
2021/03/04 12:14:09;;;;;;;8.38;3.60;;;20.70;30.60;;;;;;2558047;53;21435;-69
2021/03/04 12:16:36;;;;;;;8.77;4.12;;;20.60;31.00;;;;;;2341414;54;20955;-69
2021/03/04 12:19:03;;;;;;;9.52;4.53;;;20.50;31.00;;;;;;2556760;53;20990;-69
2021/03/04 12:21:29;;;;;;;9.23;5.28;;;20.30;31.00;;;;;;2333359;54;21006;-69
2021/03/04 12:23:56;;;;;;;17.98;4.97;;;20.20;31.00;;;;;;2559139;53;20922;-69
2021/03/04 12:26:29;;;;;;;9.77;4.33;;;20.10;31.00;;;;;;2332792;54;21498;-69
2021/03/04 12:28:55;;;;;;;8.07;4.03;;;20.00;31.10;;;;;;2556674;53;21177;-69
2021/03/04 12:31:22;;;;;;;7.00;3.80;;;19.90;31.20;;;;;;2330348;53;20986;-69
2021/03/04 12:33:49;;;;;;;9.77;4.62;;;19.80;31.30;;;;;;2557395;53;20997;-69
2021/03/04 12:36:18;;;;;;;10.77;4.12;;;19.70;31.20;;;;;;2322312;54;21450;-69
2021/03/04 12:38:44;;;;;;;12.07;4.22;;;19.60;31.30;;;;;;2334677;54;21879;-69
2021/03/04 12:41:11;;;;;;;11.70;4.12;;;19.60;31.50;;;;;;2557358;53;20962;-69
2021/03/04 12:43:37;;;;;;;8.95;4.00;;;19.60;31.80;;;;;;2329214;54;20986;-69
2021/03/04 12:46:04;;;;;;;7.82;3.65;;;19.60;31.90;;;;;;2336008;54;20983;-69
2021/03/04 12:48:31;;;;;;;8.77;3.65;;;19.60;32.00;;;;;;2555222;53;21102;-69
2021/03/04 12:50:58;;;;;;;8.75;4.18;;;19.50;31.90;;;;;;2323690;54;21009;-69
2021/03/04 12:53:25;;;;;;;9.80;4.30;;;19.60;32.00;;;;;;2556808;53;20974;-69
2021/03/04 12:55:52;;;;;;;10.85;4.97;;;19.50;32.00;;;;;;2330577;54;21013;-69
2021/03/04 12:58:18;;;;;;;8.93;3.97;;;19.50;31.90;;;;;;2322507;54;20956;-69
2021/03/04 13:00:44;;;;;;;11.32;4.65;;;19.50;32.10;;;;;;2557129;53;21013;-69
2021/03/04 13:03:23;;;;;;;7.97;4.10;;;19.50;32.10;;;;;;2322078;54;21712;-69
2021/03/04 13:05:49;;;;;;;7.55;3.90;;;19.40;32.10;;;;;;2332119;53;20930;-69